sensor_id;sensor_type;location;lat;lon;timestamp;P1;durP1;ratioP1;P2;durP2;ratioP2
20531;SDS011;10424;52.102;8.084;2023-12-04T00:01:53;50.77;;;20.03;;
20531;SDS011;10424;52.102;8.084;2023-12-04T00:04:20;44.20;;;16.80;;
20531;SDS011;10424;52.102;8.084;2023-12-04T00:06:47;45.00;;;18.50;;
20531;SDS011;10424;52.102;8.084;2023-12-04T00:09:15;38.50;;;14.07;;
20531;SDS011;10424;52.102;8.084;2023-12-04T00:11:42;43.07;;;17.60;;
20531;SDS011;10424;52.102;8.084;2023-12-04T00:14:09;43.67;;;17.83;;
20531;SDS011;10424;52.102;8.084;2023-12-04T00:16:38;37.27;;;15.00;;
20531;SDS011;10424;52.102;8.084;2023-12-04T00:19:05;43.00;;;17.37;;
20531;SDS011;10424;52.102;8.084;2023-12-04T00:21:33;46.93;;;17.77;;
20531;SDS011;10424;52.102;8.084;2023-12-04T00:24:00;46.13;;;17.50;;
20531;SDS011;10424;52.102;8.084;2023-12-04T00:26:27;44.17;;;16.87;;
20531;SDS011;10424;52.102;8.084;2023-12-04T00:28:55;43.77;;;17.23;;
20531;SDS011;10424;52.102;8.084;2023-12-04T00:31:23;46.37;;;18.47;;
20531;SDS011;10424;52.102;8.084;2023-12-04T00:33:52;44.03;;;16.40;;
20531;SDS011;10424;52.102;8.084;2023-12-04T00:36:20;44.53;;;17.50;;
20531;SDS011;10424;52.102;8.084;2023-12-04T00:38:47;38.17;;;14.67;;
20531;SDS011;10424;52.102;8.084;2023-12-04T00:41:15;47.90;;;19.63;;
20531;SDS011;10424;52.102;8.084;2023-12-04T00:43:42;45.97;;;18.00;;
20531;SDS011;10424;52.102;8.084;2023-12-04T00:46:10;47.80;;;18.73;;
20531;SDS011;10424;52.102;8.084;2023-12-04T00:48:37;35.00;;;13.80;;
20531;SDS011;10424;52.102;8.084;2023-12-04T00:51:07;46.77;;;17.17;;
20531;SDS011;10424;52.102;8.084;2023-12-04T00:53:34;47.03;;;16.77;;
20531;SDS011;10424;52.102;8.084;2023-12-04T00:56:01;46.87;;;17.10;;
20531;SDS011;10424;52.102;8.084;2023-12-04T00:58:28;44.43;;;17.03;;
20531;SDS011;10424;52.102;8.084;2023-12-04T01:00:56;44.10;;;16.93;;
20531;SDS011;10424;52.102;8.084;2023-12-04T01:03:23;41.53;;;15.80;;
20531;SDS011;10424;52.102;8.084;2023-12-04T01:05:51;34.47;;;13.13;;
20531;SDS011;10424;52.102;8.084;2023-12-04T01:08:20;44.80;;;16.83;;
20531;SDS011;10424;52.102;8.084;2023-12-04T01:10:48;39.00;;;13.87;;
20531;SDS011;10424;52.102;8.084;2023-12-04T01:13:15;44.97;;;17.37;;
20531;SDS011;10424;52.102;8.084;2023-12-04T01:15:43;42.63;;;15.53;;
20531;SDS011;10424;52.102;8.084;2023-12-04T01:18:12;39.23;;;16.20;;
20531;SDS011;10424;52.102;8.084;2023-12-04T01:20:39;43.13;;;18.63;;
20531;SDS011;10424;52.102;8.084;2023-12-04T01:23:07;34.27;;;14.13;;
20531;SDS011;10424;52.102;8.084;2023-12-04T01:25:36;41.53;;;16.13;;
20531;SDS011;10424;52.102;8.084;2023-12-04T01:28:03;25.63;;;11.07;;
20531;SDS011;10424;52.102;8.084;2023-12-04T01:30:30;38.30;;;15.20;;
20531;SDS011;10424;52.102;8.084;2023-12-04T01:32:58;21.93;;;8.60;;
20531;SDS011;10424;52.102;8.084;2023-12-04T01:35:25;39.73;;;17.43;;
20531;SDS011;10424;52.102;8.084;2023-12-04T01:37:53;40.70;;;15.73;;
20531;SDS011;10424;52.102;8.084;2023-12-04T01:40:20;41.37;;;16.97;;
20531;SDS011;10424;52.102;8.084;2023-12-04T01:42:49;40.57;;;17.37;;
20531;SDS011;10424;52.102;8.084;2023-12-04T01:45:16;40.47;;;15.37;;
20531;SDS011;10424;52.102;8.084;2023-12-04T01:47:44;26.63;;;10.43;;
20531;SDS011;10424;52.102;8.084;2023-12-04T01:50:11;40.97;;;17.23;;
20531;SDS011;10424;52.102;8.084;2023-12-04T01:52:39;34.23;;;14.23;;
20531;SDS011;10424;52.102;8.084;2023-12-04T01:55:07;34.60;;;13.37;;
20531;SDS011;10424;52.102;8.084;2023-12-04T01:57:35;37.90;;;14.50;;
20531;SDS011;10424;52.102;8.084;2023-12-04T02:00:05;33.90;;;14.63;;
20531;SDS011;10424;52.102;8.084;2023-12-04T02:02:36;34.50;;;14.17;;
20531;SDS011;10424;52.102;8.084;2023-12-04T02:05:04;31.97;;;14.03;;
20531;SDS011;10424;52.102;8.084;2023-12-04T02:07:32;34.40;;;13.80;;
20531;SDS011;10424;52.102;8.084;2023-12-04T02:10:00;34.37;;;14.30;;
20531;SDS011;10424;52.102;8.084;2023-12-04T02:12:28;35.27;;;14.93;;
20531;SDS011;10424;52.102;8.084;2023-12-04T02:14:56;34.70;;;14.77;;
20531;SDS011;10424;52.102;8.084;2023-12-04T02:17:24;38.80;;;15.07;;
20531;SDS011;10424;52.102;8.084;2023-12-04T02:19:53;38.27;;;15.97;;
20531;SDS011;10424;52.102;8.084;2023-12-04T02:22:20;36.00;;;14.40;;
20531;SDS011;10424;52.102;8.084;2023-12-04T02:24:49;34.07;;;14.87;;
20531;SDS011;10424;52.102;8.084;2023-12-04T02:27:17;33.33;;;13.53;;
20531;SDS011;10424;52.102;8.084;2023-12-04T02:29:46;35.50;;;13.93;;
20531;SDS011;10424;52.102;8.084;2023-12-04T02:32:14;35.43;;;15.03;;
20531;SDS011;10424;52.102;8.084;2023-12-04T02:34:42;29.83;;;11.90;;
20531;SDS011;10424;52.102;8.084;2023-12-04T02:37:11;33.57;;;13.83;;
20531;SDS011;10424;52.102;8.084;2023-12-04T02:39:39;31.47;;;13.80;;
20531;SDS011;10424;52.102;8.084;2023-12-04T02:42:07;34.67;;;14.27;;
20531;SDS011;10424;52.102;8.084;2023-12-04T02:44:35;37.40;;;15.47;;
20531;SDS011;10424;52.102;8.084;2023-12-04T02:47:02;39.70;;;17.30;;
20531;SDS011;10424;52.102;8.084;2023-12-04T02:49:29;35.30;;;15.90;;
20531;SDS011;10424;52.102;8.084;2023-12-04T02:51:57;37.83;;;17.33;;
20531;SDS011;10424;52.102;8.084;2023-12-04T02:54:24;32.17;;;13.77;;
20531;SDS011;10424;52.102;8.084;2023-12-04T02:56:51;33.73;;;14.70;;
20531;SDS011;10424;52.102;8.084;2023-12-04T02:59:20;33.33;;;14.50;;
20531;SDS011;10424;52.102;8.084;2023-12-04T03:01:47;32.30;;;13.57;;
20531;SDS011;10424;52.102;8.084;2023-12-04T03:04:14;35.17;;;14.37;;
20531;SDS011;10424;52.102;8.084;2023-12-04T03:06:42;31.67;;;15.17;;
20531;SDS011;10424;52.102;8.084;2023-12-04T03:09:09;29.17;;;12.03;;
20531;SDS011;10424;52.102;8.084;2023-12-04T03:11:38;30.93;;;12.17;;
20531;SDS011;10424;52.102;8.084;2023-12-04T03:14:06;28.83;;;11.63;;
20531;SDS011;10424;52.102;8.084;2023-12-04T03:16:35;33.17;;;14.83;;
20531;SDS011;10424;52.102;8.084;2023-12-04T03:19:03;32.97;;;13.33;;
20531;SDS011;10424;52.102;8.084;2023-12-04T03:21:30;29.10;;;12.93;;
20531;SDS011;10424;52.102;8.084;2023-12-04T03:23:57;33.90;;;13.47;;
20531;SDS011;10424;52.102;8.084;2023-12-04T03:26:25;31.43;;;14.17;;
20531;SDS011;10424;52.102;8.084;2023-12-04T03:28:53;33.20;;;14.23;;
20531;SDS011;10424;52.102;8.084;2023-12-04T03:31:20;28.83;;;13.17;;
20531;SDS011;10424;52.102;8.084;2023-12-04T03:33:49;29.70;;;13.57;;
20531;SDS011;10424;52.102;8.084;2023-12-04T03:36:16;30.13;;;13.43;;
20531;SDS011;10424;52.102;8.084;2023-12-04T03:38:44;28.77;;;12.43;;
20531;SDS011;10424;52.102;8.084;2023-12-04T03:41:14;30.67;;;13.73;;
20531;SDS011;10424;52.102;8.084;2023-12-04T03:43:41;31.10;;;13.53;;
20531;SDS011;10424;52.102;8.084;2023-12-04T03:46:08;26.93;;;11.40;;
20531;SDS011;10424;52.102;8.084;2023-12-04T03:48:36;31.40;;;12.87;;
20531;SDS011;10424;52.102;8.084;2023-12-04T03:51:05;29.23;;;13.87;;
20531;SDS011;10424;52.102;8.084;2023-12-04T03:53:32;29.23;;;12.17;;
20531;SDS011;10424;52.102;8.084;2023-12-04T03:55:59;31.17;;;13.10;;
20531;SDS011;10424;52.102;8.084;2023-12-04T03:58:26;28.60;;;12.90;;
20531;SDS011;10424;52.102;8.084;2023-12-04T04:00:54;30.53;;;14.73;;
20531;SDS011;10424;52.102;8.084;2023-12-04T04:03:21;30.40;;;12.60;;
20531;SDS011;10424;52.102;8.084;2023-12-04T04:05:48;27.93;;;12.67;;
20531;SDS011;10424;52.102;8.084;2023-12-04T04:08:17;28.77;;;12.37;;
20531;SDS011;10424;52.102;8.084;2023-12-04T04:10:44;29.30;;;13.80;;
20531;SDS011;10424;52.102;8.084;2023-12-04T04:13:11;26.07;;;12.50;;
20531;SDS011;10424;52.102;8.084;2023-12-04T04:15:39;29.60;;;12.30;;
20531;SDS011;10424;52.102;8.084;2023-12-04T04:18:06;28.40;;;12.57;;
20531;SDS011;10424;52.102;8.084;2023-12-04T04:20:33;25.60;;;11.60;;
20531;SDS011;10424;52.102;8.084;2023-12-04T04:23:01;25.97;;;12.13;;
20531;SDS011;10424;52.102;8.084;2023-12-04T04:25:29;28.97;;;12.80;;
20531;SDS011;10424;52.102;8.084;2023-12-04T04:27:56;28.13;;;12.43;;
20531;SDS011;10424;52.102;8.084;2023-12-04T04:30:24;26.97;;;12.53;;
20531;SDS011;10424;52.102;8.084;2023-12-04T04:32:51;26.90;;;12.70;;
20531;SDS011;10424;52.102;8.084;2023-12-04T04:35:18;29.47;;;12.30;;
20531;SDS011;10424;52.102;8.084;2023-12-04T04:37:45;25.90;;;11.90;;
20531;SDS011;10424;52.102;8.084;2023-12-04T04:40:13;26.10;;;12.57;;
20531;SDS011;10424;52.102;8.084;2023-12-04T04:42:43;24.30;;;11.97;;
20531;SDS011;10424;52.102;8.084;2023-12-04T04:45:10;27.40;;;12.10;;
20531;SDS011;10424;52.102;8.084;2023-12-04T04:47:37;27.30;;;12.50;;
20531;SDS011;10424;52.102;8.084;2023-12-04T04:50:05;26.73;;;12.07;;
20531;SDS011;10424;52.102;8.084;2023-12-04T04:52:33;26.10;;;12.23;;
20531;SDS011;10424;52.102;8.084;2023-12-04T04:55:00;24.17;;;11.30;;
20531;SDS011;10424;52.102;8.084;2023-12-04T04:57:27;26.17;;;10.73;;
20531;SDS011;10424;52.102;8.084;2023-12-04T04:59:56;26.90;;;11.20;;
20531;SDS011;10424;52.102;8.084;2023-12-04T05:02:23;24.20;;;11.67;;
20531;SDS011;10424;52.102;8.084;2023-12-04T05:04:51;24.30;;;10.97;;
20531;SDS011;10424;52.102;8.084;2023-12-04T05:07:18;27.13;;;11.83;;
20531;SDS011;10424;52.102;8.084;2023-12-04T05:09:45;22.90;;;11.03;;
20531;SDS011;10424;52.102;8.084;2023-12-04T05:12:12;22.37;;;10.73;;
20531;SDS011;10424;52.102;8.084;2023-12-04T05:14:40;24.90;;;11.40;;
20531;SDS011;10424;52.102;8.084;2023-12-04T05:17:08;19.97;;;10.47;;
20531;SDS011;10424;52.102;8.084;2023-12-04T05:19:36;24.90;;;11.87;;
20531;SDS011;10424;52.102;8.084;2023-12-04T05:22:03;21.73;;;10.90;;
20531;SDS011;10424;52.102;8.084;2023-12-04T05:24:30;22.50;;;10.83;;
20531;SDS011;10424;52.102;8.084;2023-12-04T05:26:58;23.23;;;10.97;;
20531;SDS011;10424;52.102;8.084;2023-12-04T05:29:25;23.13;;;11.67;;
20531;SDS011;10424;52.102;8.084;2023-12-04T05:31:52;22.53;;;10.93;;
20531;SDS011;10424;52.102;8.084;2023-12-04T05:34:21;21.37;;;10.33;;
20531;SDS011;10424;52.102;8.084;2023-12-04T05:36:48;23.13;;;10.50;;
20531;SDS011;10424;52.102;8.084;2023-12-04T05:39:15;22.27;;;10.33;;
20531;SDS011;10424;52.102;8.084;2023-12-04T05:41:43;22.60;;;10.73;;
20531;SDS011;10424;52.102;8.084;2023-12-04T05:44:10;22.20;;;10.43;;
20531;SDS011;10424;52.102;8.084;2023-12-04T05:46:37;22.43;;;10.90;;
20531;SDS011;10424;52.102;8.084;2023-12-04T05:49:04;21.63;;;10.17;;
20531;SDS011;10424;52.102;8.084;2023-12-04T05:51:33;22.83;;;10.50;;
20531;SDS011;10424;52.102;8.084;2023-12-04T05:54:00;23.37;;;10.20;;
20531;SDS011;10424;52.102;8.084;2023-12-04T05:56:28;24.00;;;10.80;;
20531;SDS011;10424;52.102;8.084;2023-12-04T05:58:55;20.13;;;10.53;;
20531;SDS011;10424;52.102;8.084;2023-12-04T06:01:22;18.93;;;10.33;;
20531;SDS011;10424;52.102;8.084;2023-12-04T06:03:49;21.43;;;10.70;;
20531;SDS011;10424;52.102;8.084;2023-12-04T06:06:17;21.70;;;10.27;;
20531;SDS011;10424;52.102;8.084;2023-12-04T06:08:45;20.57;;;10.13;;
20531;SDS011;10424;52.102;8.084;2023-12-04T06:11:13;20.60;;;9.30;;
20531;SDS011;10424;52.102;8.084;2023-12-04T06:13:40;18.97;;;9.37;;
20531;SDS011;10424;52.102;8.084;2023-12-04T06:16:07;20.10;;;9.13;;
20531;SDS011;10424;52.102;8.084;2023-12-04T06:18:35;31.90;;;15.83;;
20531;SDS011;10424;52.102;8.084;2023-12-04T06:21:02;20.57;;;10.30;;
20531;SDS011;10424;52.102;8.084;2023-12-04T06:23:30;18.23;;;9.17;;
20531;SDS011;10424;52.102;8.084;2023-12-04T06:25:59;20.00;;;9.47;;
20531;SDS011;10424;52.102;8.084;2023-12-04T06:28:27;19.73;;;9.53;;
20531;SDS011;10424;52.102;8.084;2023-12-04T06:30:54;19.23;;;9.27;;
20531;SDS011;10424;52.102;8.084;2023-12-04T06:33:22;19.57;;;9.20;;
20531;SDS011;10424;52.102;8.084;2023-12-04T06:35:50;17.73;;;8.77;;
20531;SDS011;10424;52.102;8.084;2023-12-04T06:38:17;18.93;;;8.70;;
20531;SDS011;10424;52.102;8.084;2023-12-04T06:40:46;18.47;;;8.47;;
20531;SDS011;10424;52.102;8.084;2023-12-04T06:43:15;18.03;;;9.30;;
20531;SDS011;10424;52.102;8.084;2023-12-04T06:45:43;20.23;;;9.87;;
20531;SDS011;10424;52.102;8.084;2023-12-04T06:48:11;17.57;;;8.67;;
20531;SDS011;10424;52.102;8.084;2023-12-04T06:50:40;16.37;;;8.57;;
20531;SDS011;10424;52.102;8.084;2023-12-04T06:53:07;16.63;;;8.77;;
20531;SDS011;10424;52.102;8.084;2023-12-04T06:55:34;16.03;;;8.53;;
20531;SDS011;10424;52.102;8.084;2023-12-04T06:58:01;16.13;;;8.30;;
20531;SDS011;10424;52.102;8.084;2023-12-04T07:00:30;19.87;;;8.63;;
20531;SDS011;10424;52.102;8.084;2023-12-04T07:02:57;17.53;;;9.20;;
20531;SDS011;10424;52.102;8.084;2023-12-04T07:05:24;18.17;;;8.60;;
20531;SDS011;10424;52.102;8.084;2023-12-04T07:07:52;19.60;;;8.53;;
20531;SDS011;10424;52.102;8.084;2023-12-04T07:10:19;15.33;;;8.13;;
20531;SDS011;10424;52.102;8.084;2023-12-04T07:12:47;15.63;;;8.07;;
20531;SDS011;10424;52.102;8.084;2023-12-04T07:15:14;17.83;;;8.97;;
20531;SDS011;10424;52.102;8.084;2023-12-04T07:17:43;21.27;;;8.80;;
20531;SDS011;10424;52.102;8.084;2023-12-04T07:20:11;16.90;;;9.10;;
20531;SDS011;10424;52.102;8.084;2023-12-04T07:22:38;16.23;;;8.63;;
20531;SDS011;10424;52.102;8.084;2023-12-04T07:25:05;17.77;;;8.83;;
20531;SDS011;10424;52.102;8.084;2023-12-04T07:27:33;15.73;;;8.23;;
20531;SDS011;10424;52.102;8.084;2023-12-04T07:30:00;18.30;;;8.87;;
20531;SDS011;10424;52.102;8.084;2023-12-04T07:32:28;17.03;;;8.13;;
20531;SDS011;10424;52.102;8.084;2023-12-04T07:34:57;17.90;;;8.80;;
20531;SDS011;10424;52.102;8.084;2023-12-04T07:37:24;16.23;;;8.23;;
20531;SDS011;10424;52.102;8.084;2023-12-04T07:39:52;17.77;;;9.27;;
20531;SDS011;10424;52.102;8.084;2023-12-04T07:42:19;19.90;;;9.07;;
20531;SDS011;10424;52.102;8.084;2023-12-04T07:44:46;19.73;;;10.60;;
20531;SDS011;10424;52.102;8.084;2023-12-04T07:47:14;19.90;;;10.20;;
20531;SDS011;10424;52.102;8.084;2023-12-04T07:49:41;17.40;;;8.87;;
20531;SDS011;10424;52.102;8.084;2023-12-04T07:52:10;18.57;;;8.33;;
20531;SDS011;10424;52.102;8.084;2023-12-04T07:54:37;18.80;;;9.10;;
20531;SDS011;10424;52.102;8.084;2023-12-04T07:57:04;17.73;;;8.90;;
20531;SDS011;10424;52.102;8.084;2023-12-04T07:59:32;17.37;;;8.93;;
20531;SDS011;10424;52.102;8.084;2023-12-04T08:01:59;17.87;;;8.87;;
20531;SDS011;10424;52.102;8.084;2023-12-04T08:04:27;16.27;;;8.30;;
20531;SDS011;10424;52.102;8.084;2023-12-04T08:06:54;19.63;;;9.27;;
20531;SDS011;10424;52.102;8.084;2023-12-04T08:09:23;17.57;;;9.00;;
20531;SDS011;10424;52.102;8.084;2023-12-04T08:11:50;17.43;;;8.33;;
20531;SDS011;10424;52.102;8.084;2023-12-04T08:14:17;16.67;;;8.17;;
20531;SDS011;10424;52.102;8.084;2023-12-04T08:16:44;17.43;;;8.70;;
20531;SDS011;10424;52.102;8.084;2023-12-04T08:19:12;16.10;;;8.70;;
20531;SDS011;10424;52.102;8.084;2023-12-04T08:21:39;17.00;;;9.00;;
20531;SDS011;10424;52.102;8.084;2023-12-04T08:24:06;17.93;;;9.37;;
20531;SDS011;10424;52.102;8.084;2023-12-04T08:26:35;17.13;;;9.30;;
20531;SDS011;10424;52.102;8.084;2023-12-04T08:29:02;18.17;;;9.50;;
20531;SDS011;10424;52.102;8.084;2023-12-04T08:31:29;16.53;;;8.50;;
20531;SDS011;10424;52.102;8.084;2023-12-04T08:33:56;17.00;;;8.73;;
20531;SDS011;10424;52.102;8.084;2023-12-04T08:36:24;16.40;;;9.10;;
20531;SDS011;10424;52.102;8.084;2023-12-04T08:38:51;18.43;;;9.20;;
20531;SDS011;10424;52.102;8.084;2023-12-04T08:41:18;15.90;;;9.00;;
20531;SDS011;10424;52.102;8.084;2023-12-04T08:43:47;15.70;;;8.47;;
20531;SDS011;10424;52.102;8.084;2023-12-04T08:46:14;14.83;;;7.97;;
20531;SDS011;10424;52.102;8.084;2023-12-04T08:48:41;15.90;;;8.47;;
20531;SDS011;10424;52.102;8.084;2023-12-04T08:51:14;15.60;;;8.60;;
20531;SDS011;10424;52.102;8.084;2023-12-04T08:53:42;16.77;;;8.73;;
20531;SDS011;10424;52.102;8.084;2023-12-04T08:56:09;19.17;;;8.60;;
20531;SDS011;10424;52.102;8.084;2023-12-04T08:58:37;15.53;;;8.10;;
20531;SDS011;10424;52.102;8.084;2023-12-04T09:01:06;17.83;;;8.43;;
20531;SDS011;10424;52.102;8.084;2023-12-04T09:03:33;15.00;;;8.40;;
20531;SDS011;10424;52.102;8.084;2023-12-04T09:06:01;17.27;;;8.17;;
20531;SDS011;10424;52.102;8.084;2023-12-04T09:08:28;15.33;;;8.30;;
20531;SDS011;10424;52.102;8.084;2023-12-04T09:10:56;14.40;;;8.00;;
20531;SDS011;10424;52.102;8.084;2023-12-04T09:13:24;16.03;;;8.30;;
20531;SDS011;10424;52.102;8.084;2023-12-04T09:15:51;15.57;;;8.00;;
20531;SDS011;10424;52.102;8.084;2023-12-04T09:18:20;15.57;;;8.07;;
20531;SDS011;10424;52.102;8.084;2023-12-04T09:20:47;16.73;;;8.43;;
20531;SDS011;10424;52.102;8.084;2023-12-04T09:23:14;15.53;;;8.50;;
20531;SDS011;10424;52.102;8.084;2023-12-04T09:25:41;14.97;;;8.07;;
20531;SDS011;10424;52.102;8.084;2023-12-04T09:28:09;13.30;;;7.37;;
20531;SDS011;10424;52.102;8.084;2023-12-04T09:30:36;15.37;;;8.27;;
20531;SDS011;10424;52.102;8.084;2023-12-04T09:33:04;14.93;;;8.07;;
20531;SDS011;10424;52.102;8.084;2023-12-04T09:35:33;15.13;;;8.47;;
20531;SDS011;10424;52.102;8.084;2023-12-04T09:38:00;13.07;;;7.60;;
20531;SDS011;10424;52.102;8.084;2023-12-04T09:40:27;15.17;;;8.77;;
20531;SDS011;10424;52.102;8.084;2023-12-04T09:42:55;14.70;;;7.80;;
20531;SDS011;10424;52.102;8.084;2023-12-04T09:45:23;13.93;;;7.93;;
20531;SDS011;10424;52.102;8.084;2023-12-04T09:47:50;14.57;;;7.50;;
20531;SDS011;10424;52.102;8.084;2023-12-04T09:50:18;14.33;;;7.63;;
20531;SDS011;10424;52.102;8.084;2023-12-04T09:52:49;14.03;;;7.90;;
20531;SDS011;10424;52.102;8.084;2023-12-04T09:55:16;14.23;;;7.03;;
20531;SDS011;10424;52.102;8.084;2023-12-04T09:57:45;14.53;;;7.90;;
20531;SDS011;10424;52.102;8.084;2023-12-04T10:00:14;13.37;;;8.07;;
20531;SDS011;10424;52.102;8.084;2023-12-04T10:02:41;14.97;;;7.67;;
20531;SDS011;10424;52.102;8.084;2023-12-04T10:05:09;14.23;;;7.93;;
20531;SDS011;10424;52.102;8.084;2023-12-04T10:07:36;14.83;;;7.67;;
20531;SDS011;10424;52.102;8.084;2023-12-04T10:10:05;15.17;;;7.87;;
20531;SDS011;10424;52.102;8.084;2023-12-04T10:12:33;15.03;;;7.97;;
20531;SDS011;10424;52.102;8.084;2023-12-04T10:15:04;12.53;;;6.97;;
20531;SDS011;10424;52.102;8.084;2023-12-04T10:17:35;14.47;;;7.97;;
20531;SDS011;10424;52.102;8.084;2023-12-04T10:20:09;14.07;;;7.73;;
20531;SDS011;10424;52.102;8.084;2023-12-04T10:22:38;13.73;;;7.50;;
20531;SDS011;10424;52.102;8.084;2023-12-04T10:25:14;15.10;;;7.77;;
20531;SDS011;10424;52.102;8.084;2023-12-04T10:27:43;13.93;;;7.43;;
20531;SDS011;10424;52.102;8.084;2023-12-04T10:30:20;14.77;;;7.90;;
20531;SDS011;10424;52.102;8.084;2023-12-04T10:32:48;14.00;;;8.03;;
20531;SDS011;10424;52.102;8.084;2023-12-04T10:35:16;16.00;;;7.90;;
20531;SDS011;10424;52.102;8.084;2023-12-04T10:37:43;15.27;;;7.53;;
20531;SDS011;10424;52.102;8.084;2023-12-04T10:40:10;15.33;;;7.37;;
20531;SDS011;10424;52.102;8.084;2023-12-04T10:42:40;14.07;;;7.13;;
20531;SDS011;10424;52.102;8.084;2023-12-04T10:45:07;14.30;;;7.30;;
20531;SDS011;10424;52.102;8.084;2023-12-04T10:47:35;16.23;;;6.70;;
20531;SDS011;10424;52.102;8.084;2023-12-04T10:50:03;12.80;;;6.97;;
20531;SDS011;10424;52.102;8.084;2023-12-04T10:52:32;13.27;;;7.30;;
20531;SDS011;10424;52.102;8.084;2023-12-04T10:55:00;16.57;;;7.33;;
20531;SDS011;10424;52.102;8.084;2023-12-04T10:57:31;13.10;;;7.20;;
20531;SDS011;10424;52.102;8.084;2023-12-04T11:00:01;15.03;;;7.73;;
20531;SDS011;10424;52.102;8.084;2023-12-04T11:02:33;16.23;;;7.30;;
20531;SDS011;10424;52.102;8.084;2023-12-04T11:05:03;15.10;;;8.00;;
20531;SDS011;10424;52.102;8.084;2023-12-04T11:07:33;13.67;;;7.67;;
20531;SDS011;10424;52.102;8.084;2023-12-04T11:10:01;14.83;;;7.97;;
20531;SDS011;10424;52.102;8.084;2023-12-04T11:12:29;13.67;;;6.97;;
20531;SDS011;10424;52.102;8.084;2023-12-04T11:14:59;13.27;;;7.40;;
20531;SDS011;10424;52.102;8.084;2023-12-04T11:17:30;12.83;;;7.50;;
20531;SDS011;10424;52.102;8.084;2023-12-04T11:20:02;14.13;;;8.03;;
20531;SDS011;10424;52.102;8.084;2023-12-04T11:22:33;12.40;;;7.20;;
20531;SDS011;10424;52.102;8.084;2023-12-04T11:25:04;14.50;;;7.30;;
20531;SDS011;10424;52.102;8.084;2023-12-04T11:27:33;12.77;;;7.03;;
20531;SDS011;10424;52.102;8.084;2023-12-04T11:30:00;12.80;;;7.30;;
20531;SDS011;10424;52.102;8.084;2023-12-04T11:32:30;13.60;;;7.43;;
20531;SDS011;10424;52.102;8.084;2023-12-04T11:34:59;13.03;;;7.03;;
20531;SDS011;10424;52.102;8.084;2023-12-04T11:37:28;13.17;;;7.60;;
20531;SDS011;10424;52.102;8.084;2023-12-04T11:39:56;14.07;;;7.80;;
20531;SDS011;10424;52.102;8.084;2023-12-04T11:42:24;14.70;;;7.37;;
20531;SDS011;10424;52.102;8.084;2023-12-04T11:44:55;15.33;;;8.03;;
20531;SDS011;10424;52.102;8.084;2023-12-04T11:47:23;15.07;;;8.40;;
20531;SDS011;10424;52.102;8.084;2023-12-04T11:49:52;14.17;;;7.80;;
20531;SDS011;10424;52.102;8.084;2023-12-04T11:52:33;15.27;;;8.07;;
20531;SDS011;10424;52.102;8.084;2023-12-04T11:55:00;15.13;;;8.17;;
20531;SDS011;10424;52.102;8.084;2023-12-04T11:57:32;15.77;;;8.27;;
20531;SDS011;10424;52.102;8.084;2023-12-04T12:00:09;16.37;;;8.13;;
20531;SDS011;10424;52.102;8.084;2023-12-04T12:02:37;14.40;;;8.07;;
20531;SDS011;10424;52.102;8.084;2023-12-04T12:05:07;13.87;;;7.27;;
20531;SDS011;10424;52.102;8.084;2023-12-04T12:07:35;14.27;;;8.00;;
20531;SDS011;10424;52.102;8.084;2023-12-04T12:10:02;17.53;;;8.10;;
20531;SDS011;10424;52.102;8.084;2023-12-04T12:12:30;16.43;;;8.17;;
20531;SDS011;10424;52.102;8.084;2023-12-04T12:14:58;14.77;;;7.57;;
20531;SDS011;10424;52.102;8.084;2023-12-04T12:17:26;15.03;;;8.40;;
20531;SDS011;10424;52.102;8.084;2023-12-04T12:19:53;13.83;;;8.00;;
20531;SDS011;10424;52.102;8.084;2023-12-04T12:22:24;18.40;;;8.67;;
20531;SDS011;10424;52.102;8.084;2023-12-04T12:24:51;14.03;;;7.80;;
20531;SDS011;10424;52.102;8.084;2023-12-04T12:27:18;16.97;;;8.93;;
20531;SDS011;10424;52.102;8.084;2023-12-04T12:29:46;15.00;;;8.33;;
20531;SDS011;10424;52.102;8.084;2023-12-04T12:32:13;15.23;;;8.00;;
20531;SDS011;10424;52.102;8.084;2023-12-04T12:34:41;13.07;;;7.27;;
20531;SDS011;10424;52.102;8.084;2023-12-04T12:37:10;15.87;;;7.90;;
20531;SDS011;10424;52.102;8.084;2023-12-04T12:39:42;13.93;;;7.70;;
20531;SDS011;10424;52.102;8.084;2023-12-04T12:42:09;12.97;;;7.33;;
20531;SDS011;10424;52.102;8.084;2023-12-04T12:44:37;14.60;;;7.40;;
20531;SDS011;10424;52.102;8.084;2023-12-04T12:47:05;13.80;;;7.37;;
20531;SDS011;10424;52.102;8.084;2023-12-04T12:49:33;14.70;;;8.10;;
20531;SDS011;10424;52.102;8.084;2023-12-04T12:52:01;14.03;;;7.40;;
20531;SDS011;10424;52.102;8.084;2023-12-04T12:54:28;13.90;;;7.73;;
20531;SDS011;10424;52.102;8.084;2023-12-04T12:56:59;12.80;;;7.50;;
20531;SDS011;10424;52.102;8.084;2023-12-04T12:59:28;12.23;;;7.37;;
20531;SDS011;10424;52.102;8.084;2023-12-04T13:01:55;15.03;;;8.60;;
20531;SDS011;10424;52.102;8.084;2023-12-04T13:04:25;12.70;;;6.90;;
20531;SDS011;10424;52.102;8.084;2023-12-04T13:06:52;14.00;;;7.67;;
20531;SDS011;10424;52.102;8.084;2023-12-04T13:09:21;12.07;;;6.70;;
20531;SDS011;10424;52.102;8.084;2023-12-04T13:11:48;12.83;;;7.83;;
20531;SDS011;10424;52.102;8.084;2023-12-04T13:14:18;12.63;;;7.70;;
20531;SDS011;10424;52.102;8.084;2023-12-04T13:16:45;13.10;;;7.53;;
20531;SDS011;10424;52.102;8.084;2023-12-04T13:19:13;17.27;;;7.50;;
20531;SDS011;10424;52.102;8.084;2023-12-04T13:21:42;13.30;;;7.43;;
20531;SDS011;10424;52.102;8.084;2023-12-04T13:24:10;13.03;;;7.80;;
20531;SDS011;10424;52.102;8.084;2023-12-04T13:26:37;13.13;;;7.27;;
20531;SDS011;10424;52.102;8.084;2023-12-04T13:29:05;13.10;;;6.73;;
20531;SDS011;10424;52.102;8.084;2023-12-04T13:31:34;13.50;;;7.30;;
20531;SDS011;10424;52.102;8.084;2023-12-04T13:34:02;12.37;;;6.50;;
20531;SDS011;10424;52.102;8.084;2023-12-04T13:36:31;13.23;;;7.20;;
20531;SDS011;10424;52.102;8.084;2023-12-04T13:38:58;13.27;;;6.97;;
20531;SDS011;10424;52.102;8.084;2023-12-04T13:41:26;13.00;;;7.00;;
20531;SDS011;10424;52.102;8.084;2023-12-04T13:44:12;16.67;;;8.00;;
20531;SDS011;10424;52.102;8.084;2023-12-04T13:46:41;15.30;;;8.13;;
20531;SDS011;10424;52.102;8.084;2023-12-04T13:49:09;15.27;;;7.53;;
20531;SDS011;10424;52.102;8.084;2023-12-04T13:51:36;15.77;;;8.23;;
20531;SDS011;10424;52.102;8.084;2023-12-04T13:54:05;13.37;;;7.23;;
20531;SDS011;10424;52.102;8.084;2023-12-04T13:56:45;14.47;;;8.10;;
20531;SDS011;10424;52.102;8.084;2023-12-04T13:59:18;14.10;;;7.37;;
20531;SDS011;10424;52.102;8.084;2023-12-04T14:01:48;13.73;;;7.20;;
20531;SDS011;10424;52.102;8.084;2023-12-04T14:04:16;13.80;;;7.70;;
20531;SDS011;10424;52.102;8.084;2023-12-04T14:06:43;14.60;;;7.87;;
20531;SDS011;10424;52.102;8.084;2023-12-04T14:09:11;13.40;;;7.43;;
20531;SDS011;10424;52.102;8.084;2023-12-04T14:11:41;14.50;;;8.40;;
20531;SDS011;10424;52.102;8.084;2023-12-04T14:14:09;12.07;;;6.90;;
20531;SDS011;10424;52.102;8.084;2023-12-04T14:16:38;17.13;;;7.60;;
20531;SDS011;10424;52.102;8.084;2023-12-04T14:19:07;13.77;;;7.73;;
20531;SDS011;10424;52.102;8.084;2023-12-04T14:21:34;13.70;;;7.63;;
20531;SDS011;10424;52.102;8.084;2023-12-04T14:24:02;15.50;;;7.47;;
20531;SDS011;10424;52.102;8.084;2023-12-04T14:26:29;13.20;;;8.00;;
20531;SDS011;10424;52.102;8.084;2023-12-04T14:28:56;15.33;;;8.13;;
20531;SDS011;10424;52.102;8.084;2023-12-04T14:31:26;14.30;;;8.10;;
20531;SDS011;10424;52.102;8.084;2023-12-04T14:33:53;15.90;;;8.20;;